createdAt,value
2018-04-20T00:00:58.613Z,14.28
2018-04-20T00:01:58.623Z,14.23
2018-04-20T00:02:58.633Z,14.22
2018-04-20T00:03:58.652Z,14.22
2018-04-20T00:04:58.674Z,14.30
2018-04-20T00:05:58.711Z,14.16
2018-04-20T00:06:58.717Z,14.16
2018-04-20T00:07:58.739Z,14.11
2018-04-20T00:08:58.759Z,14.05
2018-04-20T00:09:58.780Z,14.05
2018-04-20T00:10:58.802Z,14.08
2018-04-20T00:11:58.834Z,14.04
2018-04-20T00:12:58.846Z,14.01
2018-04-20T00:13:58.866Z,14.04
2018-04-20T00:14:58.888Z,14.00
2018-04-20T00:15:58.910Z,13.95
2018-04-20T00:16:58.930Z,14.00
2018-04-20T00:17:58.952Z,13.87
2018-04-20T00:18:58.973Z,13.85
2018-04-20T00:19:58.995Z,13.83
2018-04-20T00:20:59.017Z,13.83
2018-04-20T00:21:59.037Z,13.89
2018-04-20T00:22:59.059Z,13.78
2018-04-20T00:23:59.080Z,13.83
2018-04-20T00:24:59.104Z,13.82
2018-04-20T00:25:59.123Z,13.82
2018-04-20T00:26:59.144Z,13.76
2018-04-20T00:27:59.166Z,13.73
2018-04-20T00:28:59.187Z,13.76
2018-04-20T00:29:59.209Z,13.76
2018-04-20T00:30:59.219Z,13.67
2018-04-20T00:31:59.239Z,13.64
2018-04-20T00:32:59.261Z,13.70
2018-04-20T00:33:59.285Z,13.67
2018-04-20T00:34:59.302Z,13.73
2018-04-20T00:35:59.324Z,13.57
2018-04-20T00:36:59.349Z,13.50
2018-04-20T00:37:59.367Z,13.58
2018-04-20T00:38:59.387Z,13.52
2018-04-20T00:39:59.422Z,13.50
2018-04-20T00:40:59.430Z,13.60
2018-04-20T00:41:59.455Z,13.46
2018-04-20T00:42:59.481Z,13.50
2018-04-20T00:43:59.497Z,13.47
2018-04-20T00:44:59.516Z,13.31
2018-04-20T00:45:59.537Z,13.40
2018-04-20T00:46:59.559Z,13.42
2018-04-20T00:47:59.583Z,13.43
2018-04-20T00:48:59.615Z,13.33
2018-04-20T00:49:59.627Z,13.30
2018-04-20T00:50:59.633Z,13.33
2018-04-20T00:51:59.655Z,13.28
2018-04-20T00:52:59.675Z,13.30
2018-04-20T00:53:59.700Z,13.19
2018-04-20T00:54:59.717Z,13.17
2018-04-20T00:55:59.740Z,13.17
2018-04-20T00:56:59.762Z,13.26
2018-04-20T00:57:59.782Z,13.19
2018-04-20T00:58:59.803Z,13.16
2018-04-20T00:59:59.825Z,13.19
2018-04-20T01:00:59.847Z,13.19
2018-04-20T01:01:59.867Z,13.11
2018-04-20T01:02:59.893Z,13.16
2018-04-20T01:03:59.911Z,13.13
2018-04-20T01:04:59.921Z,13.11
2018-04-20T01:05:59.942Z,13.05
2018-04-20T01:06:59.962Z,13.02
2018-04-20T01:07:59.983Z,13.01
2018-04-20T01:09:00.004Z,13.05
2018-04-20T01:10:00.026Z,13.02
2018-04-20T01:11:00.061Z,13.01
2018-04-20T01:12:00.067Z,13.01
2018-04-20T01:13:00.090Z,12.91
2018-04-20T01:14:00.110Z,12.91
2018-04-20T01:15:00.132Z,12.93
2018-04-20T01:16:00.152Z,12.90
2018-04-20T01:17:00.163Z,12.88
2018-04-20T01:18:00.184Z,12.91
2018-04-20T01:19:00.205Z,12.88
2018-04-20T01:20:00.226Z,12.83
2018-04-20T01:21:00.250Z,12.86
2018-04-20T01:22:00.268Z,12.90
2018-04-20T01:23:00.290Z,12.81
2018-04-20T01:24:00.311Z,12.80
2018-04-20T01:25:00.333Z,12.81
2018-04-20T01:26:00.354Z,12.75
2018-04-20T01:27:00.376Z,12.76
2018-04-20T01:28:00.385Z,12.80
2018-04-20T01:29:00.405Z,12.75
2018-04-20T01:30:00.488Z,12.73
2018-04-20T01:31:00.447Z,12.75
2018-04-20T01:32:00.469Z,12.75
2018-04-20T01:33:00.491Z,12.69
2018-04-20T01:34:00.515Z,12.75
2018-04-20T01:35:00.533Z,12.78
2018-04-20T01:36:00.554Z,12.80
2018-04-20T01:37:00.575Z,12.73
2018-04-20T01:38:00.597Z,12.69
2018-04-20T01:39:00.607Z,12.65
2018-04-20T01:40:00.628Z,12.66
2018-04-20T01:41:00.648Z,12.68
2018-04-20T01:42:00.671Z,12.72
2018-04-20T01:43:00.692Z,12.66
2018-04-20T01:44:00.714Z,12.68
2018-04-20T01:45:00.734Z,12.66
2018-04-20T01:46:00.764Z,12.65
2018-04-20T01:47:00.777Z,12.69
2018-04-20T01:48:00.787Z,12.66
2018-04-20T01:49:00.806Z,12.65
2018-04-20T01:50:00.828Z,12.68
2018-04-20T01:51:00.864Z,12.68
2018-04-20T01:52:00.873Z,12.68
2018-04-20T01:53:00.891Z,12.62
2018-04-20T01:54:00.913Z,12.63
2018-04-20T01:55:00.934Z,12.55
2018-04-20T01:56:00.955Z,12.57
2018-04-20T01:57:00.978Z,12.63
2018-04-20T01:58:00.987Z,12.58
2018-04-20T01:59:01.008Z,12.54
2018-04-20T02:00:01.029Z,12.45
2018-04-20T02:01:01.055Z,12.58
2018-04-20T02:02:01.072Z,12.57
2018-04-20T02:03:01.094Z,12.53
2018-04-20T02:04:01.115Z,12.53
2018-04-20T02:05:01.141Z,12.54
2018-04-20T02:06:01.158Z,12.40
2018-04-20T02:07:01.167Z,12.40
2018-04-20T02:08:01.188Z,12.44
2018-04-20T02:09:01.209Z,12.40
2018-04-20T02:10:01.233Z,12.45
2018-04-20T02:11:01.253Z,12.37
2018-04-20T02:12:01.296Z,12.43
2018-04-20T02:13:01.310Z,12.39
2018-04-20T02:14:01.317Z,12.37
2018-04-20T02:15:01.327Z,12.37
2018-04-20T02:16:01.349Z,12.36
2018-04-20T02:17:01.372Z,12.35
2018-04-20T02:18:01.392Z,12.36
2018-04-20T02:19:01.413Z,12.29
2018-04-20T02:20:01.450Z,12.32
2018-04-20T02:21:01.456Z,12.30
2018-04-20T02:22:01.491Z,12.30
2018-04-20T02:23:01.498Z,12.37
2018-04-20T02:24:01.508Z,12.28
2018-04-20T02:25:01.534Z,12.25
2018-04-20T02:26:01.549Z,12.20
2018-04-20T02:27:01.574Z,12.21
2018-04-20T02:28:01.595Z,12.20
2018-04-20T02:29:01.614Z,12.23
2018-04-20T02:30:01.637Z,12.25
2018-04-20T02:31:01.683Z,12.14
2018-04-20T02:32:01.667Z,12.20
2018-04-20T02:33:01.688Z,12.17
2018-04-20T02:34:01.722Z,12.18
2018-04-20T02:35:01.731Z,12.25
2018-04-20T02:36:01.756Z,12.18
2018-04-20T02:37:01.776Z,12.11
2018-04-20T02:38:01.800Z,12.14
2018-04-20T02:39:01.816Z,12.20
2018-04-20T02:40:01.825Z,12.11
2018-04-20T02:41:01.846Z,12.10
2018-04-20T02:42:01.875Z,12.08
2018-04-20T02:43:01.888Z,12.11
2018-04-20T02:44:01.923Z,12.17
2018-04-20T02:45:01.935Z,12.05
2018-04-20T02:46:01.953Z,12.12
2018-04-20T02:47:01.965Z,12.08
2018-04-20T02:48:01.985Z,12.10
2018-04-20T02:49:02.014Z,12.11
2018-04-20T02:50:02.027Z,12.02
2018-04-20T02:51:02.050Z,12.10
2018-04-20T02:52:02.070Z,12.08
2018-04-20T02:53:02.092Z,12.02
2018-04-20T02:54:02.114Z,12.03
2018-04-20T02:55:02.129Z,11.96
2018-04-20T02:56:02.142Z,11.95
2018-04-20T02:57:02.177Z,12.03
2018-04-20T02:58:02.190Z,11.96
2018-04-20T02:59:02.209Z,11.95
2018-04-20T03:00:02.229Z,12.00
2018-04-20T03:01:02.250Z,11.95
2018-04-20T03:02:02.271Z,11.97
2018-04-20T03:03:02.279Z,12.00
2018-04-20T03:04:02.305Z,12.02
2018-04-20T03:05:02.322Z,11.93
2018-04-20T03:06:02.351Z,12.00
2018-04-20T03:07:02.366Z,11.99
2018-04-20T03:08:02.386Z,11.86
2018-04-20T03:09:02.411Z,11.81
2018-04-20T03:10:02.418Z,11.91
2018-04-20T03:11:02.439Z,11.86
2018-04-20T03:12:02.459Z,11.91
2018-04-20T03:13:02.483Z,11.89
2018-04-20T03:14:02.501Z,11.95
2018-04-20T03:15:02.523Z,11.93
2018-04-20T03:16:02.544Z,11.86
2018-04-20T03:17:02.554Z,11.81
2018-04-20T03:18:02.576Z,11.83
2018-04-20T03:19:02.599Z,11.95
2018-04-20T03:20:02.618Z,11.93
2018-04-20T03:21:02.639Z,11.85
2018-04-20T03:22:02.663Z,11.86
2018-04-20T03:23:02.671Z,11.86
2018-04-20T03:24:02.691Z,11.89
2018-04-20T03:25:02.712Z,11.81
2018-04-20T03:26:02.733Z,11.80
2018-04-20T03:27:02.765Z,11.88
2018-04-20T03:28:02.790Z,11.88
2018-04-20T03:29:02.799Z,11.86
2018-04-20T03:30:02.820Z,11.85
2018-04-20T03:31:03.130Z,11.78
2018-04-20T03:32:02.850Z,11.77
2018-04-20T03:33:02.872Z,11.77
2018-04-20T03:34:02.893Z,11.77
2018-04-20T03:35:02.915Z,11.80
2018-04-20T03:36:03.186Z,11.77
2018-04-20T03:37:02.946Z,11.76
2018-04-20T03:38:02.966Z,11.77
2018-04-20T03:39:02.987Z,11.81
2018-04-20T03:40:03.009Z,11.71
2018-04-20T03:41:03.044Z,11.78
2018-04-20T03:42:03.052Z,11.80
2018-04-20T03:43:03.075Z,11.76
2018-04-20T03:44:03.082Z,11.77
2018-04-20T03:45:03.103Z,11.76
2018-04-20T03:46:03.128Z,11.78
2018-04-20T03:47:03.147Z,11.76
2018-04-20T03:48:03.169Z,11.73
2018-04-20T03:49:03.190Z,11.74
2018-04-20T03:50:03.211Z,11.76
2018-04-20T03:51:03.219Z,11.70
2018-04-20T03:52:03.240Z,11.71
2018-04-20T03:53:03.261Z,11.68
2018-04-20T03:54:03.288Z,11.68
2018-04-20T03:55:03.305Z,11.73
2018-04-20T03:56:03.325Z,11.70
2018-04-20T03:57:03.335Z,11.71
2018-04-20T03:58:03.357Z,11.68
2018-04-20T03:59:03.379Z,11.71
2018-04-20T04:00:03.400Z,11.71
2018-04-20T04:01:03.424Z,11.67
2018-04-20T04:02:03.442Z,11.68
2018-04-20T04:03:03.522Z,11.67
2018-04-20T04:04:03.472Z,11.71
2018-04-20T04:05:03.492Z,11.70
2018-04-20T04:06:03.514Z,11.65
2018-04-20T04:07:03.535Z,11.68
2018-04-20T04:08:03.556Z,11.73
2018-04-20T04:09:03.583Z,11.67
2018-04-20T04:10:03.589Z,11.70
2018-04-20T04:11:03.609Z,11.70
2018-04-20T04:12:03.636Z,11.80
2018-04-20T04:13:03.652Z,11.67
2018-04-20T04:14:03.673Z,11.80
2018-04-20T04:15:03.695Z,11.73
2018-04-20T04:16:03.716Z,11.78
2018-04-20T04:17:03.724Z,11.73
2018-04-20T04:18:03.804Z,11.80
2018-04-20T04:19:03.767Z,11.78
2018-04-20T04:20:03.789Z,11.85
2018-04-20T04:21:03.810Z,11.77
2018-04-20T04:22:03.831Z,11.80
2018-04-20T04:23:03.841Z,11.78
2018-04-20T04:24:03.862Z,11.80
2018-04-20T04:25:03.884Z,11.83
2018-04-20T04:26:03.905Z,11.88
2018-04-20T04:27:03.926Z,11.81
2018-04-20T04:28:03.947Z,11.85
2018-04-20T04:29:03.969Z,11.88
2018-04-20T04:30:03.977Z,11.85
2018-04-20T04:31:03.999Z,11.95
2018-04-20T04:32:04.020Z,11.91
2018-04-20T04:33:04.041Z,11.97
2018-04-20T04:34:04.063Z,11.86
2018-04-20T04:35:04.087Z,12.00
2018-04-20T04:36:04.094Z,11.88
2018-04-20T04:37:04.115Z,11.97
2018-04-20T04:38:04.137Z,12.03
2018-04-20T04:39:04.158Z,12.00
2018-04-20T04:40:04.180Z,11.97
2018-04-20T04:41:04.208Z,11.97
2018-04-20T04:42:04.222Z,12.00
2018-04-20T04:43:04.234Z,12.07
2018-04-20T04:44:04.251Z,12.07
2018-04-20T04:45:04.276Z,12.07
2018-04-20T04:46:04.294Z,12.00
2018-04-20T04:47:04.318Z,12.11
2018-04-20T04:48:04.341Z,12.08
2018-04-20T04:49:04.358Z,12.08
2018-04-20T04:50:04.379Z,12.20
2018-04-20T04:51:04.389Z,12.15
2018-04-20T04:52:04.414Z,12.15
2018-04-20T04:53:04.432Z,12.15
2018-04-20T04:54:04.454Z,12.23
2018-04-20T04:55:04.475Z,12.25
2018-04-20T04:56:04.495Z,12.29
2018-04-20T04:57:04.517Z,12.20
2018-04-20T04:58:04.527Z,12.28
2018-04-20T04:59:04.547Z,12.29
2018-04-20T05:00:04.568Z,12.29
2018-04-20T05:01:04.589Z,12.29
2018-04-20T05:02:04.610Z,12.33
2018-04-20T05:03:04.635Z,12.44
2018-04-20T05:04:04.654Z,12.40
2018-04-20T05:05:04.675Z,12.37
2018-04-20T05:06:04.697Z,12.44
2018-04-20T05:07:04.707Z,12.40
2018-04-20T05:08:04.731Z,12.40
2018-04-20T05:09:04.786Z,12.43
2018-04-20T05:10:04.770Z,12.44
2018-04-20T05:11:04.790Z,12.54
2018-04-20T05:12:04.813Z,12.55
2018-04-20T05:13:04.834Z,12.53
2018-04-20T05:14:04.856Z,12.58
2018-04-20T05:15:04.865Z,12.55
2018-04-20T05:16:04.888Z,12.61
2018-04-20T05:17:04.907Z,12.58
2018-04-20T05:18:04.928Z,12.65
2018-04-20T05:19:04.962Z,12.63
2018-04-20T05:20:04.971Z,12.72
2018-04-20T05:21:04.992Z,12.68
2018-04-20T05:22:05.013Z,12.78
2018-04-20T05:23:05.036Z,12.73
2018-04-20T05:24:05.063Z,12.69
2018-04-20T05:25:05.078Z,12.76
2018-04-20T05:26:05.100Z,12.86
2018-04-20T05:27:05.109Z,12.87
2018-04-20T05:28:05.131Z,12.84
2018-04-20T05:29:05.151Z,12.86
2018-04-20T05:30:05.173Z,12.83
2018-04-20T05:31:05.195Z,12.87
2018-04-20T05:32:05.223Z,12.88
2018-04-20T05:33:05.238Z,12.95
2018-04-20T05:34:05.258Z,12.99
2018-04-20T05:35:05.280Z,13.01
2018-04-20T05:36:05.301Z,12.99
2018-04-20T05:37:05.322Z,12.95
2018-04-20T05:38:05.336Z,13.17
2018-04-20T05:39:05.352Z,13.17
2018-04-20T05:40:05.386Z,13.16
2018-04-20T05:41:05.394Z,13.20
2018-04-20T05:42:05.416Z,13.26
2018-04-20T05:43:05.438Z,13.30
2018-04-20T05:44:05.459Z,13.19
2018-04-20T05:45:05.481Z,13.23
2018-04-20T05:46:05.501Z,13.27
2018-04-20T05:47:05.522Z,13.37
2018-04-20T05:48:05.544Z,13.36
2018-04-20T05:49:05.578Z,13.39
2018-04-20T05:50:05.587Z,13.49
2018-04-20T05:51:05.607Z,13.43
2018-04-20T05:52:05.630Z,13.60
2018-04-20T05:53:05.651Z,13.54
2018-04-20T05:54:05.664Z,13.55
2018-04-20T05:55:05.682Z,13.67
2018-04-20T05:56:05.704Z,13.67
2018-04-20T05:57:05.724Z,13.64
2018-04-20T05:58:05.748Z,13.68
2018-04-20T05:59:05.767Z,13.79
2018-04-20T06:00:05.789Z,13.75
2018-04-20T06:01:05.840Z,13.91
2018-04-20T06:02:05.832Z,13.91
2018-04-20T06:03:05.859Z,13.89
2018-04-20T06:04:05.874Z,13.97
2018-04-20T06:05:05.896Z,13.97
2018-04-20T06:06:05.918Z,13.94
2018-04-20T06:07:05.960Z,14.11
2018-04-20T06:08:05.960Z,14.11
2018-04-20T06:09:05.981Z,14.18
2018-04-20T06:10:06.003Z,14.33
2018-04-20T06:11:06.025Z,14.26
2018-04-20T06:12:06.050Z,14.37
2018-04-20T06:13:06.067Z,14.45
2018-04-20T06:14:06.091Z,14.44
2018-04-20T06:15:06.110Z,14.56
2018-04-20T06:16:06.131Z,14.52
2018-04-20T06:17:06.153Z,14.62
2018-04-20T06:18:06.174Z,14.59
2018-04-20T06:19:06.195Z,14.73
2018-04-20T06:20:06.217Z,14.77
2018-04-20T06:21:06.243Z,14.94
2018-04-20T06:22:06.259Z,15.10
2018-04-20T06:23:06.280Z,15.17
2018-04-20T06:24:06.302Z,15.35
2018-04-20T06:25:06.324Z,15.54
2018-04-20T06:26:06.346Z,15.66
2018-04-20T06:27:06.366Z,15.91
2018-04-20T06:28:06.388Z,16.09
2018-04-20T06:29:06.409Z,16.28
2018-04-20T06:30:06.436Z,16.49
2018-04-20T06:31:06.463Z,16.64
2018-04-20T06:32:06.485Z,16.83
2018-04-20T06:33:06.506Z,17.13
2018-04-20T06:34:06.544Z,17.24
2018-04-20T06:35:06.549Z,17.39
2018-04-20T06:36:06.571Z,17.60
2018-04-20T06:37:06.593Z,17.79
2018-04-20T06:38:06.629Z,17.97
2018-04-20T06:39:06.648Z,18.15
2018-04-20T06:40:06.668Z,18.24
2018-04-20T06:41:06.690Z,18.48
2018-04-20T06:42:06.737Z,18.64
2018-04-20T06:43:06.744Z,18.82
2018-04-20T06:44:06.767Z,18.96
2018-04-20T06:45:06.789Z,19.15
2018-04-20T06:46:06.823Z,19.37
2018-04-20T06:47:06.845Z,19.55
2018-04-20T06:48:06.866Z,19.70
2018-04-20T06:49:06.903Z,19.89
2018-04-20T06:50:06.920Z,20.02
2018-04-20T06:51:06.941Z,20.14
2018-04-20T06:52:06.964Z,20.39
2018-04-20T06:53:06.997Z,20.50
2018-04-20T06:54:07.019Z,20.66
2018-04-20T06:55:07.051Z,20.77
2018-04-20T06:56:07.112Z,20.90
2018-04-20T06:57:07.096Z,21.15
2018-04-20T06:58:07.130Z,21.22
2018-04-20T06:59:07.151Z,21.38
2018-04-20T07:00:07.192Z,21.47
2018-04-20T07:01:07.206Z,21.63
2018-04-20T07:02:07.227Z,21.74
2018-04-20T07:03:07.261Z,21.88
2018-04-20T07:04:07.328Z,21.99
2018-04-20T07:05:07.316Z,22.12
2018-04-20T07:06:07.337Z,22.28
2018-04-20T07:07:07.372Z,22.38
2018-04-20T07:08:07.393Z,22.53
2018-04-20T07:09:07.426Z,22.71
2018-04-20T07:10:07.448Z,22.74
2018-04-20T07:11:07.482Z,22.78
2018-04-20T07:12:07.511Z,22.89
2018-04-20T07:13:07.536Z,22.96
2018-04-20T07:14:07.559Z,23.08
2018-04-20T07:15:07.593Z,23.20
2018-04-20T07:16:07.614Z,23.34
2018-04-20T07:17:07.647Z,23.39
2018-04-20T07:18:07.669Z,23.58
2018-04-20T07:19:07.704Z,23.69
2018-04-20T07:20:07.737Z,23.81
2018-04-20T07:21:07.771Z,23.91
2018-04-20T07:22:07.796Z,24.00
2018-04-20T07:23:07.814Z,24.03
2018-04-20T07:24:07.847Z,24.11
2018-04-20T07:25:07.882Z,24.14
2018-04-20T07:26:07.903Z,24.24
2018-04-20T07:27:07.939Z,24.46
2018-04-20T07:28:07.958Z,24.44
2018-04-20T07:29:07.991Z,24.61
2018-04-20T07:30:08.031Z,24.56
2018-04-20T07:31:08.060Z,24.68
2018-04-20T07:32:08.081Z,24.68
2018-04-20T07:33:08.114Z,24.82
2018-04-20T07:34:08.136Z,24.85
2018-04-20T07:35:08.170Z,24.97
2018-04-20T07:36:08.203Z,24.94
2018-04-20T07:37:08.229Z,24.94
2018-04-20T07:38:08.259Z,24.74
2018-04-20T07:39:08.293Z,24.99
2018-04-20T07:40:08.328Z,25.04
2018-04-20T07:41:08.349Z,25.15
2018-04-20T07:42:08.382Z,25.16
2018-04-20T07:43:08.417Z,25.18
2018-04-20T07:44:08.449Z,25.26
2018-04-20T07:45:08.476Z,25.33
2018-04-20T07:46:08.507Z,25.36
2018-04-20T07:47:08.539Z,25.43
2018-04-20T07:48:08.575Z,25.43
2018-04-20T07:49:08.595Z,25.56
2018-04-20T07:50:08.627Z,25.52
2018-04-20T07:51:08.663Z,25.70
2018-04-20T07:52:08.696Z,25.67
2018-04-20T07:53:08.731Z,25.78
2018-04-20T07:54:08.751Z,25.71
2018-04-20T07:55:08.797Z,25.91
2018-04-20T07:56:08.819Z,25.74
2018-04-20T07:57:08.853Z,25.81
2018-04-20T07:58:08.887Z,25.93
2018-04-20T07:59:08.920Z,25.95
2018-04-20T08:00:08.944Z,25.96
2018-04-20T08:01:08.977Z,26.10
2018-04-20T08:02:09.009Z,26.13
2018-04-20T08:03:09.044Z,26.04
2018-04-20T08:04:09.077Z,25.95
2018-04-20T08:05:09.112Z,25.95
2018-04-20T08:06:09.145Z,25.91
2018-04-20T08:07:09.180Z,25.77
2018-04-20T08:08:09.201Z,25.71
2018-04-20T08:09:09.234Z,25.62
2018-04-20T08:10:09.269Z,25.54
2018-04-20T08:11:09.305Z,25.29
2018-04-20T08:12:09.336Z,25.25
2018-04-20T08:13:09.358Z,25.16
2018-04-20T08:14:09.390Z,25.03
2018-04-20T08:15:09.432Z,24.94
2018-04-20T08:16:09.459Z,24.88
2018-04-20T08:17:09.480Z,24.78
2018-04-20T08:18:09.514Z,24.75
2018-04-20T08:19:09.560Z,24.68
2018-04-20T08:20:09.641Z,24.56
2018-04-20T08:21:09.603Z,24.41
2018-04-20T08:22:09.637Z,24.38
2018-04-20T08:23:09.658Z,24.34
2018-04-20T08:24:09.692Z,24.26
2018-04-20T08:25:09.715Z,24.21
2018-04-20T08:26:09.750Z,24.10
2018-04-20T08:27:09.771Z,24.19
2018-04-20T08:28:09.804Z,24.11
2018-04-20T08:29:09.838Z,24.06
2018-04-20T08:30:09.859Z,24.03
2018-04-20T08:31:09.893Z,23.94
2018-04-20T08:32:09.915Z,24.01
2018-04-20T08:33:09.947Z,23.99
2018-04-20T08:34:10.029Z,23.89
2018-04-20T08:35:10.003Z,23.95
2018-04-20T08:36:10.038Z,23.85
2018-04-20T08:37:10.058Z,23.79
2018-04-20T08:38:10.098Z,23.74
2018-04-20T08:39:10.114Z,23.81
2018-04-20T08:40:10.164Z,23.84
2018-04-20T08:41:10.170Z,23.79
2018-04-20T08:42:10.203Z,23.77
2018-04-20T08:43:10.224Z,23.77
2018-04-20T08:44:10.258Z,23.84
2018-04-20T08:45:10.281Z,23.73
2018-04-20T08:46:10.319Z,23.79
2018-04-20T08:47:10.340Z,23.71
2018-04-20T08:48:10.367Z,23.81
2018-04-20T08:49:10.391Z,23.77
2018-04-20T08:50:10.428Z,23.84
2018-04-20T08:51:10.446Z,23.84
2018-04-20T08:52:10.482Z,23.81
2018-04-20T08:53:10.500Z,23.82
2018-04-20T08:54:10.534Z,23.86
2018-04-20T08:55:10.556Z,23.81
2018-04-20T08:56:10.589Z,23.88
2018-04-20T08:57:10.611Z,23.81
2018-04-20T08:58:10.644Z,23.86
2018-04-20T08:59:10.668Z,23.84
2018-04-20T09:00:10.703Z,23.89
2018-04-20T09:01:10.722Z,23.85
2018-04-20T09:02:10.755Z,23.94
2018-04-20T09:03:10.788Z,23.95
2018-04-20T09:04:10.810Z,23.88
2018-04-20T09:05:10.834Z,23.94
2018-04-20T09:06:10.866Z,23.95
2018-04-20T09:07:10.887Z,24.04
2018-04-20T09:08:10.921Z,24.07
2018-04-20T09:09:10.942Z,24.01
2018-04-20T09:10:10.977Z,24.14
2018-04-20T09:11:10.998Z,24.13
2018-04-20T09:12:11.030Z,24.18
2018-04-20T09:13:11.053Z,24.07
2018-04-20T09:14:11.088Z,24.09
2018-04-20T09:15:11.109Z,24.13
2018-04-20T09:16:11.141Z,24.18
2018-04-20T09:17:11.163Z,24.14
2018-04-20T09:18:11.198Z,24.11
2018-04-20T09:19:11.219Z,24.18
2018-04-20T09:20:11.254Z,24.26
2018-04-20T09:21:11.274Z,24.24
2018-04-20T09:22:11.308Z,24.25
2018-04-20T09:23:11.329Z,24.25
2018-04-20T09:24:11.368Z,24.37
2018-04-20T09:25:11.390Z,24.43
2018-04-20T09:26:11.419Z,24.36
2018-04-20T09:27:11.442Z,24.46
2018-04-20T09:28:11.473Z,24.48
2018-04-20T09:29:11.507Z,24.41
2018-04-20T09:30:11.528Z,24.44
2018-04-20T09:31:11.550Z,24.50
2018-04-20T09:32:11.585Z,24.61
2018-04-20T09:33:11.606Z,24.58
2018-04-20T09:34:11.639Z,24.53
2018-04-20T09:35:11.673Z,24.59
2018-04-20T09:36:11.694Z,24.68
2018-04-20T09:37:11.729Z,24.74
2018-04-20T09:38:11.750Z,24.65
2018-04-20T09:39:11.783Z,24.65
2018-04-20T09:40:11.805Z,24.78
2018-04-20T09:41:11.839Z,24.79
2018-04-20T09:42:11.860Z,24.81
2018-04-20T09:43:11.895Z,24.82
2018-04-20T09:44:11.915Z,24.81
2018-04-20T09:45:11.950Z,24.94
2018-04-20T09:46:12.020Z,24.97
2018-04-20T09:47:12.005Z,24.97
2018-04-20T09:48:12.026Z,25.01
2018-04-20T09:49:12.061Z,25.03
2018-04-20T09:50:12.096Z,25.04
2018-04-20T09:51:12.115Z,25.18
2018-04-20T09:52:12.150Z,25.16
2018-04-20T09:53:12.171Z,25.18
2018-04-20T09:54:12.204Z,25.22
2018-04-20T09:55:12.225Z,25.24
2018-04-20T09:56:12.263Z,25.26
2018-04-20T09:57:12.283Z,25.34
2018-04-20T09:58:12.315Z,25.36
2018-04-20T09:59:12.338Z,25.41
2018-04-20T10:00:12.373Z,25.36
2018-04-20T10:01:12.392Z,25.39
2018-04-20T10:02:12.424Z,25.43
2018-04-20T10:03:12.459Z,25.49
2018-04-20T10:04:12.480Z,25.62
2018-04-20T10:05:12.515Z,25.58
2018-04-20T10:06:12.536Z,25.66
2018-04-20T10:07:12.571Z,25.77
2018-04-20T10:08:12.592Z,25.66
2018-04-20T10:09:12.638Z,25.78
2018-04-20T10:10:12.659Z,25.80
2018-04-20T10:11:12.681Z,25.83
2018-04-20T10:12:12.713Z,25.89
2018-04-20T10:13:12.736Z,25.98
2018-04-20T10:14:12.772Z,25.95
2018-04-20T10:15:12.803Z,25.93
2018-04-20T10:16:12.825Z,26.06
2018-04-20T10:17:12.863Z,26.11
2018-04-20T10:18:12.892Z,26.26
2018-04-20T10:19:12.914Z,26.29
2018-04-20T10:20:12.949Z,26.33
2018-04-20T10:21:12.981Z,26.51
2018-04-20T10:22:13.017Z,26.64
2018-04-20T10:23:13.050Z,26.71
2018-04-20T10:24:13.072Z,27.04
2018-04-20T10:25:13.105Z,27.20
2018-04-20T10:26:13.142Z,27.30
2018-04-20T10:27:13.173Z,27.35
2018-04-20T10:28:13.206Z,27.66
2018-04-20T10:29:13.241Z,27.78
2018-04-20T10:30:13.274Z,27.93
2018-04-20T10:31:13.308Z,28.06
2018-04-20T10:32:13.342Z,28.22
2018-04-20T10:33:13.376Z,28.43
2018-04-20T10:34:13.410Z,28.46
2018-04-20T10:35:13.446Z,28.68
2018-04-20T10:36:13.491Z,28.77
2018-04-20T10:37:13.524Z,29.00
2018-04-20T10:38:13.558Z,29.00
2018-04-20T10:39:13.591Z,29.25
2018-04-20T10:40:13.626Z,29.43
2018-04-20T10:41:13.673Z,29.67
2018-04-20T10:42:13.705Z,29.87
2018-04-20T10:43:13.740Z,30.11
2018-04-20T10:44:13.790Z,30.43
2018-04-20T10:45:13.819Z,30.62
2018-04-20T10:46:13.866Z,30.93
2018-04-20T10:47:13.900Z,31.17
2018-04-20T10:48:13.954Z,31.45
2018-04-20T10:49:13.979Z,31.62
2018-04-20T10:50:14.015Z,31.73
2018-04-20T10:51:14.061Z,31.92
2018-04-20T10:52:14.094Z,32.24
2018-04-20T10:53:14.139Z,32.42
2018-04-20T10:54:14.186Z,32.64
2018-04-20T10:55:14.220Z,32.78
2018-04-20T10:56:14.267Z,33.00
2018-04-20T10:57:14.300Z,33.22
2018-04-20T10:58:14.346Z,33.39
2018-04-20T10:59:14.381Z,33.53
2018-04-20T11:00:14.432Z,33.70
2018-04-20T11:01:14.481Z,33.94
2018-04-20T11:02:14.507Z,34.10
2018-04-20T11:03:14.553Z,34.24
2018-04-20T11:04:14.599Z,34.22
2018-04-20T11:05:14.634Z,34.46
2018-04-20T11:06:14.682Z,34.63
2018-04-20T11:07:14.727Z,34.71
2018-04-20T11:08:14.760Z,34.89
2018-04-20T11:09:14.806Z,35.08
2018-04-20T11:10:14.852Z,35.05
2018-04-20T11:11:14.895Z,35.42
2018-04-20T11:12:14.934Z,35.54
2018-04-20T11:13:14.979Z,35.78
2018-04-20T11:14:15.025Z,35.86
2018-04-20T11:15:15.059Z,35.98
2018-04-20T11:16:15.105Z,35.94
2018-04-20T11:17:15.152Z,36.08
2018-04-20T11:18:15.201Z,36.31
2018-04-20T11:19:15.233Z,36.35
2018-04-20T11:20:15.285Z,36.53
2018-04-20T11:21:15.325Z,36.63
2018-04-20T11:22:15.371Z,36.50
2018-04-20T11:23:15.418Z,36.62
2018-04-20T11:24:15.450Z,36.72
2018-04-20T11:25:15.498Z,36.73
2018-04-20T11:26:15.544Z,36.87
2018-04-20T11:27:15.590Z,37.03
2018-04-20T11:28:15.625Z,37.04
2018-04-20T11:29:15.671Z,37.19
2018-04-20T11:30:15.718Z,37.16
2018-04-20T11:31:15.764Z,37.15
2018-04-20T11:32:15.810Z,37.18
2018-04-20T11:33:15.845Z,37.22
2018-04-20T11:34:15.889Z,37.23
2018-04-20T11:35:15.937Z,37.37
2018-04-20T11:36:15.982Z,37.44
2018-04-20T11:37:16.029Z,37.54
2018-04-20T11:38:16.078Z,37.60
2018-04-20T11:39:16.109Z,37.61
2018-04-20T11:40:16.156Z,37.75
2018-04-20T11:41:16.202Z,37.79
2018-04-20T11:42:16.249Z,37.67
2018-04-20T11:43:16.296Z,37.75
2018-04-20T11:44:16.338Z,37.76
2018-04-20T11:45:16.375Z,37.71
2018-04-20T11:46:16.421Z,37.88
2018-04-20T11:47:16.468Z,38.00
2018-04-20T11:48:16.514Z,38.10
2018-04-20T11:49:16.560Z,38.04
2018-04-20T11:50:16.596Z,38.01
2018-04-20T11:51:16.645Z,38.01
2018-04-20T11:52:16.689Z,37.94
2018-04-20T11:53:16.738Z,37.97
2018-04-20T11:54:16.784Z,37.97
2018-04-20T11:55:16.816Z,37.79
2018-04-20T11:56:16.861Z,37.78
2018-04-20T11:57:16.908Z,37.72
2018-04-20T11:58:16.954Z,37.64
2018-04-20T11:59:17.000Z,37.56
2018-04-20T12:00:17.047Z,37.45
2018-04-20T12:01:17.083Z,37.34
2018-04-20T12:02:17.175Z,37.40
2018-04-20T12:03:17.176Z,37.41
2018-04-20T12:04:17.219Z,37.54
2018-04-20T12:05:17.254Z,37.60
2018-04-20T12:06:17.367Z,37.48
2018-04-20T12:07:17.346Z,37.56
2018-04-20T12:08:17.397Z,37.57
2018-04-20T12:09:17.439Z,37.41
2018-04-20T12:10:17.474Z,37.41
2018-04-20T12:11:17.519Z,37.38
2018-04-20T12:12:17.567Z,37.44
2018-04-20T12:13:17.612Z,37.41
2018-04-20T12:14:17.650Z,37.36
2018-04-20T12:15:17.692Z,37.36
2018-04-20T12:16:17.738Z,37.37
2018-04-20T12:17:17.785Z,37.36
2018-04-20T12:18:17.820Z,37.33
2018-04-20T12:19:17.867Z,37.40
2018-04-20T12:20:17.912Z,37.41
2018-04-20T12:21:17.972Z,37.31
2018-04-20T12:22:17.992Z,37.33
2018-04-20T12:23:18.038Z,37.40
2018-04-20T12:24:18.084Z,37.28
2018-04-20T12:25:18.131Z,37.44
2018-04-20T12:26:18.166Z,37.44
2018-04-20T12:27:18.230Z,37.34
2018-04-20T12:28:18.261Z,37.34
2018-04-20T12:29:18.305Z,37.50
2018-04-20T12:30:18.352Z,37.54
2018-04-20T12:31:18.384Z,37.47
2018-04-20T12:32:18.432Z,37.37
2018-04-20T12:33:18.479Z,37.48
2018-04-20T12:34:18.513Z,37.36
2018-04-20T12:35:18.560Z,37.37
2018-04-20T12:36:18.605Z,37.45
2018-04-20T12:37:18.654Z,37.34
2018-04-20T12:38:18.688Z,37.21
2018-04-20T12:39:18.734Z,37.25
2018-04-20T12:40:18.776Z,37.14
2018-04-20T12:41:18.874Z,37.04
2018-04-20T12:42:18.859Z,36.94
2018-04-20T12:43:18.905Z,36.96
2018-04-20T12:44:18.974Z,36.94
2018-04-20T12:45:18.986Z,36.91
2018-04-20T12:46:19.030Z,36.75
2018-04-20T12:47:19.077Z,36.59
2018-04-20T12:48:19.123Z,36.41
2018-04-20T12:49:19.161Z,36.24
2018-04-20T12:50:19.204Z,36.03
2018-04-20T12:51:19.278Z,35.86
2018-04-20T12:52:19.283Z,35.66
2018-04-20T12:53:19.330Z,35.38